createdAt,value
2017-01-07T14:38:33.790Z,-6.59
2017-01-07T14:39:33.772Z,-6.62
2017-01-07T14:40:33.769Z,-6.58
2017-01-07T14:41:33.727Z,-6.55
2017-01-07T14:42:33.705Z,-6.62
2017-01-07T14:43:33.688Z,-6.7
2017-01-07T14:44:33.662Z,-6.67
2017-01-07T14:45:33.644Z,-6.74
2017-01-07T14:46:33.627Z,-6.76
2017-01-07T14:47:33.605Z,-6.78
2017-01-07T14:48:33.598Z,-6.81
2017-01-07T14:49:33.582Z,-6.78
2017-01-07T14:50:33.555Z,-6.71
2017-01-07T14:51:33.538Z,-6.74
2017-01-07T14:52:33.514Z,-6.74
2017-01-07T14:53:33.494Z,-6.7
2017-01-07T14:54:33.475Z,-6.71
2017-01-07T14:55:33.455Z,-6.78
2017-01-07T14:56:33.439Z,-6.88
2017-01-07T14:57:33.407Z,-6.92
2017-01-07T14:58:33.387Z,-6.89
2017-01-07T14:59:33.367Z,-6.91
2017-01-07T15:00:33.351Z,-6.95
2017-01-07T15:01:33.502Z,-6.99
2017-01-07T15:02:33.475Z,-6.91
2017-01-07T15:03:33.649Z,-7.02
2017-01-07T15:04:33.438Z,-7.05
2017-01-07T15:05:33.391Z,-7.01
2017-01-07T15:06:33.408Z,-7.01
2017-01-07T15:07:33.364Z,-6.98
2017-01-07T15:08:33.690Z,-7.1
2017-01-07T15:09:33.346Z,-7.06
2017-01-07T15:10:33.301Z,-7.05
2017-01-07T15:11:33.278Z,-7.13
2017-01-07T15:12:33.273Z,-7.09
2017-01-07T15:13:33.354Z,-7.09
2017-01-07T15:14:33.183Z,-7.16
2017-01-07T15:15:33.208Z,-7.16
2017-01-07T15:16:33.167Z,-7.16
2017-01-07T15:17:33.152Z,-7.2
2017-01-07T15:18:33.173Z,-7.19
2017-01-07T15:19:33.109Z,-7.31
2017-01-07T15:20:33.091Z,-7.26
2017-01-07T15:21:33.082Z,-7.31
2017-01-07T15:22:33.067Z,-7.28
2017-01-07T15:23:33.090Z,-7.34
2017-01-07T15:24:32.985Z,-7.3
2017-01-07T15:25:32.995Z,-7.31
2017-01-07T15:26:32.964Z,-7.31
2017-01-07T15:27:32.918Z,-7.28
2017-01-07T15:28:32.972Z,-7.27
2017-01-07T15:29:32.912Z,-7.27
2017-01-07T15:30:32.874Z,-7.28
2017-01-07T15:31:32.686Z,-7.33
2017-01-07T15:32:32.664Z,-7.33
2017-01-07T15:33:32.641Z,-7.31
2017-01-07T15:34:32.621Z,-7.26
2017-01-07T15:35:32.596Z,-7.33
2017-01-07T15:36:32.580Z,-7.27
2017-01-07T15:37:32.560Z,-7.28
2017-01-07T15:38:32.927Z,-7.47
2017-01-07T15:39:32.518Z,-7.42
2017-01-07T15:40:32.490Z,-7.47
2017-01-07T15:41:32.473Z,-7.47
2017-01-07T15:42:32.448Z,-7.51
2017-01-07T15:43:32.429Z,-7.48
2017-01-07T15:44:32.408Z,-7.59
2017-01-07T15:45:32.381Z,-7.63
2017-01-07T15:46:32.362Z,-7.59
2017-01-07T15:47:32.340Z,-7.66
2017-01-07T15:48:32.314Z,-7.62
2017-01-07T15:49:32.294Z,-7.58
2017-01-07T15:50:32.273Z,-7.65
2017-01-07T15:51:32.249Z,-7.63
2017-01-07T15:52:32.240Z,-7.69
2017-01-07T15:53:32.205Z,-7.62
2017-01-07T15:54:32.185Z,-7.63
2017-01-07T15:55:32.160Z,-7.75
2017-01-07T15:56:32.138Z,-7.69
2017-01-07T15:57:32.119Z,-7.77
2017-01-07T15:58:32.099Z,-7.75
2017-01-07T15:59:32.076Z,-7.77
2017-01-07T16:00:32.054Z,-7.77
2017-01-07T16:01:32.032Z,-7.73
2017-01-07T16:02:32.008Z,-7.72
2017-01-07T16:03:31.991Z,-7.77
2017-01-07T16:04:31.965Z,-7.73
2017-01-07T16:05:31.948Z,-7.73
2017-01-07T16:06:31.922Z,-7.72
2017-01-07T16:07:31.906Z,-7.76
2017-01-07T16:08:31.879Z,-7.77
2017-01-07T16:09:31.858Z,-7.77
2017-01-07T16:10:31.839Z,-7.7
2017-01-07T16:11:31.841Z,-7.7
2017-01-07T16:12:31.797Z,-7.7
2017-01-07T16:13:31.771Z,-7.67
2017-01-07T16:14:31.751Z,-7.65
2017-01-07T16:15:31.727Z,-7.75
2017-01-07T16:16:31.702Z,-7.7
2017-01-07T16:17:31.680Z,-7.69
2017-01-07T16:18:31.661Z,-7.75
2017-01-07T16:19:31.642Z,-7.75
2017-01-07T16:20:31.617Z,-7.75
2017-01-07T16:21:31.593Z,-7.7
2017-01-07T16:22:31.573Z,-7.7
2017-01-07T16:23:31.552Z,-7.76
2017-01-07T16:24:31.531Z,-7.73
2017-01-07T16:25:31.510Z,-7.76
2017-01-07T16:26:31.488Z,-7.72
2017-01-07T16:27:31.463Z,-7.67
2017-01-07T16:28:31.439Z,-7.67
2017-01-07T16:29:31.416Z,-7.7
2017-01-07T16:30:31.401Z,-7.66
2017-01-07T16:31:31.377Z,-7.73
2017-01-07T16:32:31.354Z,-7.75
2017-01-07T16:33:31.335Z,-7.73
2017-01-07T16:34:31.318Z,-7.73
2017-01-07T16:35:31.289Z,-7.76
2017-01-07T16:36:31.269Z,-7.69
2017-01-07T16:37:31.244Z,-7.7
2017-01-07T16:38:31.224Z,-7.8
2017-01-07T16:39:31.203Z,-7.75
2017-01-07T16:40:31.186Z,-7.75
2017-01-07T16:41:31.156Z,-7.81
2017-01-07T16:42:31.136Z,-7.77
2017-01-07T16:43:31.117Z,-7.77
2017-01-07T16:44:31.095Z,-7.77
2017-01-07T16:45:31.070Z,-7.77
2017-01-07T16:46:31.048Z,-7.75
2017-01-07T16:47:31.023Z,-7.77
2017-01-07T16:48:31.006Z,-7.83
2017-01-07T16:49:30.981Z,-7.72
2017-01-07T16:50:30.961Z,-7.73
2017-01-07T16:51:30.938Z,-7.72
2017-01-07T16:52:30.917Z,-7.72
2017-01-07T16:53:30.900Z,-7.75
2017-01-07T16:54:30.879Z,-7.77
2017-01-07T16:55:31.250Z,-7.77
2017-01-07T16:56:30.832Z,-7.75
2017-01-07T16:57:30.814Z,-7.77
2017-01-07T16:58:30.792Z,-7.77
2017-01-07T16:59:30.766Z,-7.83
2017-01-07T17:00:30.747Z,-7.76
2017-01-07T17:01:30.720Z,-7.8
2017-01-07T17:02:30.704Z,-7.77
2017-01-07T17:03:30.679Z,-7.8
2017-01-07T17:04:30.658Z,-7.81
2017-01-07T17:05:30.634Z,-7.75
2017-01-07T17:06:30.614Z,-7.77
2017-01-07T17:07:30.593Z,-7.73
2017-01-07T17:08:30.572Z,-7.7
2017-01-07T17:09:30.551Z,-7.77
2017-01-07T17:10:30.525Z,-7.77
2017-01-07T17:11:30.507Z,-7.77
2017-01-07T17:12:30.513Z,-7.69
2017-01-07T17:13:30.459Z,-7.8
2017-01-07T17:14:30.442Z,-7.65
2017-01-07T17:15:30.420Z,-7.8
2017-01-07T17:16:30.394Z,-7.73
2017-01-07T17:17:30.376Z,-7.73
2017-01-07T17:18:30.353Z,-7.8
2017-01-07T17:19:30.348Z,-7.75
2017-01-07T17:20:30.309Z,-7.72
2017-01-07T17:21:30.286Z,-7.75
2017-01-07T17:22:30.266Z,-7.7
2017-01-07T17:23:30.244Z,-7.67
2017-01-07T17:24:30.228Z,-7.69
2017-01-07T17:25:30.202Z,-7.67
2017-01-07T17:26:30.180Z,-7.56
2017-01-07T17:27:30.164Z,-7.69
2017-01-07T17:28:30.135Z,-7.69
2017-01-07T17:29:30.111Z,-7.62
2017-01-07T17:30:30.088Z,-7.63
2017-01-07T17:31:30.068Z,-7.58
2017-01-07T17:32:30.050Z,-7.59
2017-01-07T17:33:30.025Z,-7.56
2017-01-07T17:34:30.005Z,-7.56
2017-01-07T17:35:29.986Z,-7.47
2017-01-07T17:36:29.961Z,-7.52
2017-01-07T17:37:29.941Z,-7.48
2017-01-07T17:38:29.916Z,-7.54
2017-01-07T17:39:29.895Z,-7.47
2017-01-07T17:40:29.873Z,-7.45
2017-01-07T17:41:29.853Z,-7.4
2017-01-07T17:42:29.831Z,-7.47
2017-01-07T17:43:29.812Z,-7.45
2017-01-07T17:44:29.791Z,-7.47
2017-01-07T17:45:29.764Z,-7.44
2017-01-07T17:46:29.744Z,-7.44
2017-01-07T17:47:29.725Z,-7.48
2017-01-07T17:48:29.700Z,-7.42
2017-01-07T17:49:29.677Z,-7.44
2017-01-07T17:50:29.660Z,-7.45
2017-01-07T17:51:29.632Z,-7.48
2017-01-07T17:52:29.615Z,-7.44
2017-01-07T17:53:29.590Z,-7.44
2017-01-07T17:54:29.571Z,-7.44
2017-01-07T17:55:29.549Z,-7.44
2017-01-07T17:56:29.521Z,-7.52
2017-01-07T17:57:29.506Z,-7.42
2017-01-07T17:58:29.482Z,-7.48
2017-01-07T17:59:29.459Z,-7.28
2017-01-07T18:00:29.438Z,-7.38
2017-01-07T18:01:29.421Z,-7.48
2017-01-07T18:02:29.395Z,-7.37
2017-01-07T18:03:29.371Z,-7.36
2017-01-07T18:04:29.356Z,-7.44
2017-01-07T18:05:29.331Z,-7.26
2017-01-07T18:06:29.307Z,-7.38
2017-01-07T18:07:29.287Z,-7.28
2017-01-07T18:08:29.265Z,-7.26
2017-01-07T18:09:29.244Z,-7.24
2017-01-07T18:10:29.223Z,-7.27
2017-01-07T18:11:29.204Z,-7.27
2017-01-07T18:12:29.178Z,-7.26
2017-01-07T18:13:29.159Z,-7.19
2017-01-07T18:14:29.136Z,-7.22
2017-01-07T18:15:29.114Z,-7.2
2017-01-07T18:16:29.092Z,-7.2
2017-01-07T18:17:29.071Z,-7.17
2017-01-07T18:18:29.051Z,-7.2
2017-01-07T18:19:29.025Z,-7.15
2017-01-07T18:20:29.011Z,-7.19
2017-01-07T18:21:28.986Z,-7.06
2017-01-07T18:22:28.963Z,-7.1
2017-01-07T18:23:28.943Z,-7.05
2017-01-07T18:24:28.921Z,-7.15
2017-01-07T18:25:28.899Z,-7.1
2017-01-07T18:26:28.879Z,-7.1
2017-01-07T18:27:28.859Z,-7.12
2017-01-07T18:28:28.836Z,-7.07
2017-01-07T18:29:28.812Z,-7.01
2017-01-07T18:30:28.794Z,-7.13
2017-01-07T18:31:28.771Z,-7.06
2017-01-07T18:32:28.748Z,-7.06
2017-01-07T18:33:28.727Z,-7.06
2017-01-07T18:34:28.709Z,-7.09
2017-01-07T18:35:28.685Z,-7.07
2017-01-07T18:36:28.667Z,-7.05
2017-01-07T18:37:28.642Z,-7.13
2017-01-07T18:38:28.621Z,-7.12
2017-01-07T18:39:28.599Z,-7.16
2017-01-07T18:40:28.579Z,-7.12
2017-01-07T18:41:28.558Z,-7.22
2017-01-07T18:42:28.935Z,-7.17
2017-01-07T18:43:28.518Z,-7.24
2017-01-07T18:44:28.492Z,-7.16
2017-01-07T18:45:28.473Z,-7.17
2017-01-07T18:46:28.452Z,-7.19
2017-01-07T18:47:28.430Z,-7.17
2017-01-07T18:48:28.405Z,-7.2
2017-01-07T18:49:28.386Z,-7.16
2017-01-07T18:50:28.363Z,-7.15
2017-01-07T18:51:28.350Z,-7.12
2017-01-07T18:52:28.326Z,-7.1
2017-01-07T18:53:28.302Z,-7.16
2017-01-07T18:54:28.279Z,-7.19
2017-01-07T18:55:28.257Z,-7.19
2017-01-07T18:56:28.237Z,-7.26
2017-01-07T18:57:28.217Z,-7.31
2017-01-07T18:58:28.191Z,-7.3
2017-01-07T18:59:28.573Z,-7.28
2017-01-07T19:00:28.155Z,-7.26
2017-01-07T19:01:28.129Z,-7.24
2017-01-07T19:02:28.112Z,-7.26
2017-01-07T19:03:28.083Z,-7.24
2017-01-07T19:04:28.061Z,-7.26
2017-01-07T19:05:28.040Z,-7.3
2017-01-07T19:06:28.024Z,-7.31
2017-01-07T19:07:27.999Z,-7.37
2017-01-07T19:08:27.979Z,-7.34
2017-01-07T19:09:27.959Z,-7.31
2017-01-07T19:10:27.937Z,-7.33
2017-01-07T19:11:27.940Z,-7.24
2017-01-07T19:12:27.890Z,-7.37
2017-01-07T19:13:27.871Z,-7.4
2017-01-07T19:14:27.877Z,-7.34
2017-01-07T19:15:27.826Z,-7.31
2017-01-07T19:16:27.803Z,-7.37
2017-01-07T19:17:27.784Z,-7.27
2017-01-07T19:18:27.767Z,-7.33
2017-01-07T19:19:27.743Z,-7.3
2017-01-07T19:20:27.719Z,-7.31
2017-01-07T19:21:27.697Z,-7.3
2017-01-07T19:22:27.675Z,-7.44
2017-01-07T19:23:27.653Z,-7.4
2017-01-07T19:24:27.632Z,-7.48
2017-01-07T19:25:27.613Z,-7.52
2017-01-07T19:26:27.588Z,-7.51
2017-01-07T19:27:27.570Z,-7.59
2017-01-07T19:28:27.728Z,-7.56
2017-01-07T19:29:27.528Z,-7.55
2017-01-07T19:30:27.502Z,-7.56
2017-01-07T19:31:27.492Z,-7.62
2017-01-07T19:32:27.456Z,-7.55
2017-01-07T19:33:27.438Z,-7.52
2017-01-07T19:34:27.416Z,-7.63
2017-01-07T19:35:27.399Z,-7.51
2017-01-07T19:36:27.374Z,-7.62
2017-01-07T19:37:27.350Z,-7.59
2017-01-07T19:38:27.329Z,-7.48
2017-01-07T19:39:27.305Z,-7.58
2017-01-07T19:40:27.286Z,-7.49
2017-01-07T19:41:27.264Z,-7.52
2017-01-07T19:42:27.245Z,-7.54
2017-01-07T19:43:27.224Z,-7.52
2017-01-07T19:44:27.200Z,-7.56
2017-01-07T19:45:27.181Z,-7.48
2017-01-07T19:46:27.159Z,-7.47
2017-01-07T19:47:27.136Z,-7.45
2017-01-07T19:48:27.111Z,-7.47
2017-01-07T19:49:27.091Z,-7.45
2017-01-07T19:50:27.067Z,-7.42
2017-01-07T19:51:27.044Z,-7.47
2017-01-07T19:52:27.027Z,-7.51
2017-01-07T19:53:27.007Z,-7.49
2017-01-07T19:54:26.984Z,-7.45
2017-01-07T19:55:26.959Z,-7.45
2017-01-07T19:56:26.936Z,-7.47
2017-01-07T19:57:26.916Z,-7.45
2017-01-07T19:58:26.900Z,-7.45
2017-01-07T19:59:26.875Z,-7.47
2017-01-07T20:00:26.852Z,-7.4
2017-01-07T20:01:26.833Z,-7.44
2017-01-07T20:02:26.812Z,-7.44
2017-01-07T20:03:26.789Z,-7.38
2017-01-07T20:04:26.766Z,-7.44
2017-01-07T20:05:26.748Z,-7.45
2017-01-07T20:06:26.723Z,-7.44
2017-01-07T20:07:26.702Z,-7.4
2017-01-07T20:08:26.679Z,-7.51
2017-01-07T20:09:26.656Z,-7.49
2017-01-07T20:10:26.640Z,-7.48
2017-01-07T20:11:26.618Z,-7.47
2017-01-07T20:12:26.598Z,-7.49
2017-01-07T20:13:26.573Z,-7.58
2017-01-07T20:14:26.552Z,-7.62
2017-01-07T20:15:26.528Z,-7.65
2017-01-07T20:16:26.511Z,-7.56
2017-01-07T20:17:26.485Z,-7.63
2017-01-07T20:18:26.467Z,-7.62
2017-01-07T20:19:26.441Z,-7.65
2017-01-07T20:20:26.428Z,-7.65
2017-01-07T20:21:26.399Z,-7.72
2017-01-07T20:22:26.376Z,-7.59
2017-01-07T20:23:26.353Z,-7.65
2017-01-07T20:24:26.384Z,-7.58
2017-01-07T20:25:26.322Z,-7.62
2017-01-07T20:26:26.287Z,-7.66
2017-01-07T20:27:26.268Z,-7.65
2017-01-07T20:28:26.248Z,-7.56
2017-01-07T20:29:26.262Z,-7.56
2017-01-07T20:30:26.204Z,-7.65
2017-01-07T20:31:26.181Z,-7.63
2017-01-07T20:32:26.162Z,-7.65
2017-01-07T20:33:26.137Z,-7.56
2017-01-07T20:34:26.117Z,-7.62
2017-01-07T20:35:26.098Z,-7.49
2017-01-07T20:36:26.073Z,-7.52
2017-01-07T20:37:26.054Z,-7.59
2017-01-07T20:38:26.030Z,-7.52
2017-01-07T20:39:26.009Z,-7.66
2017-01-07T20:40:25.986Z,-7.65
2017-01-07T20:41:25.966Z,-7.56
2017-01-07T20:42:25.943Z,-7.55
2017-01-07T20:43:25.924Z,-7.56
2017-01-07T20:44:25.903Z,-7.52
2017-01-07T20:45:25.880Z,-7.59
2017-01-07T20:46:25.859Z,-7.59
2017-01-07T20:47:25.839Z,-7.59
2017-01-07T20:48:25.811Z,-7.55
2017-01-07T20:49:25.791Z,-7.47
2017-01-07T20:50:25.778Z,-7.47
2017-01-07T20:51:25.758Z,-7.47
2017-01-07T20:52:25.727Z,-7.51
2017-01-07T20:53:25.706Z,-7.55
2017-01-07T20:54:25.682Z,-7.56
2017-01-07T20:55:25.662Z,-7.54
2017-01-07T20:56:25.643Z,-7.51
2017-01-07T20:57:25.620Z,-7.62
2017-01-07T20:58:25.599Z,-7.52
2017-01-07T20:59:25.578Z,-7.52
2017-01-07T21:00:25.552Z,-7.49
2017-01-07T21:01:25.534Z,-7.59
2017-01-07T21:02:25.507Z,-7.48
2017-01-07T21:03:25.486Z,-7.55
2017-01-07T21:04:25.469Z,-7.55
2017-01-07T21:05:25.449Z,-7.47
2017-01-07T21:06:25.421Z,-7.54
2017-01-07T21:07:25.402Z,-7.52
2017-01-07T21:08:25.383Z,-7.47
2017-01-07T21:09:25.361Z,-7.47
2017-01-07T21:10:25.335Z,-7.45
2017-01-07T21:11:25.326Z,-7.45
2017-01-07T21:12:25.292Z,-7.44
2017-01-07T21:13:25.273Z,-7.47
2017-01-07T21:14:25.252Z,-7.47
2017-01-07T21:15:25.249Z,-7.4
2017-01-07T21:16:25.208Z,-7.3
2017-01-07T21:17:25.187Z,-7.45
2017-01-07T21:18:25.164Z,-7.28
2017-01-07T21:19:25.141Z,-7.31
2017-01-07T21:20:25.118Z,-7.26
2017-01-07T21:21:25.099Z,-7.27
2017-01-07T21:22:25.082Z,-7.27
2017-01-07T21:23:25.055Z,-7.3
2017-01-07T21:24:25.032Z,-7.26
2017-01-07T21:25:25.016Z,-7.31
2017-01-07T21:26:24.988Z,-7.33
2017-01-07T21:27:25.372Z,-7.26
2017-01-07T21:28:24.949Z,-7.28
2017-01-07T21:29:24.928Z,-7.27
2017-01-07T21:30:24.909Z,-7.26
2017-01-07T21:31:24.887Z,-7.27
2017-01-07T21:32:24.869Z,-7.27
2017-01-07T21:33:24.842Z,-7.3
2017-01-07T21:34:24.822Z,-7.22
2017-01-07T21:35:24.799Z,-7.3
2017-01-07T21:36:24.776Z,-7.36
2017-01-07T21:37:24.756Z,-7.36
2017-01-07T21:38:24.737Z,-7.27
2017-01-07T21:39:24.713Z,-7.37
2017-01-07T21:40:24.691Z,-7.31
2017-01-07T21:41:24.672Z,-7.42
2017-01-07T21:42:24.645Z,-7.31
2017-01-07T21:43:24.631Z,-7.33
2017-01-07T21:44:24.606Z,-7.24
2017-01-07T21:45:24.583Z,-7.27
2017-01-07T21:46:24.560Z,-7.3
2017-01-07T21:47:24.544Z,-7.3
2017-01-07T21:48:24.522Z,-7.33
2017-01-07T21:49:24.500Z,-7.31
2017-01-07T21:50:24.475Z,-7.24
2017-01-07T21:51:24.456Z,-7.22
2017-01-07T21:52:24.430Z,-7.17
2017-01-07T21:53:24.407Z,-7.19
2017-01-07T21:54:24.387Z,-7.17
2017-01-07T21:55:24.369Z,-7.2
2017-01-07T21:56:24.344Z,-7.17
2017-01-07T21:57:24.322Z,-7.09
2017-01-07T21:58:24.322Z,-7.09
2017-01-07T21:59:24.280Z,-7.13
2017-01-07T22:00:24.261Z,-7.15
2017-01-07T22:01:24.237Z,-7.05
2017-01-07T22:02:24.214Z,-7.1
2017-01-07T22:03:24.195Z,-7.07
2017-01-07T22:04:24.167Z,-6.99
2017-01-07T22:05:24.153Z,-7.02
2017-01-07T22:06:24.129Z,-7.05
2017-01-07T22:07:24.108Z,-6.98
2017-01-07T22:08:24.085Z,-6.95
2017-01-07T22:09:24.065Z,-6.97
2017-01-07T22:10:24.042Z,-7.02
2017-01-07T22:11:24.018Z,-6.99
2017-01-07T22:12:23.999Z,-6.92
2017-01-07T22:13:23.979Z,-6.98
2017-01-07T22:14:23.958Z,-6.88
2017-01-07T22:15:23.938Z,-6.92
2017-01-07T22:16:23.917Z,-6.89
2017-01-07T22:17:23.899Z,-6.91
2017-01-07T22:18:23.866Z,-6.88
2017-01-07T22:19:23.853Z,-6.84
2017-01-07T22:20:23.833Z,-6.77
2017-01-07T22:21:23.812Z,-6.88
2017-01-07T22:22:23.784Z,-6.87
2017-01-07T22:23:23.764Z,-6.8
2017-01-07T22:24:23.740Z,-6.78
2017-01-07T22:25:23.721Z,-6.83
2017-01-07T22:26:23.698Z,-6.7
2017-01-07T22:27:23.678Z,-6.65
2017-01-07T22:28:23.658Z,-6.76
2017-01-07T22:29:23.638Z,-6.73
2017-01-07T22:30:23.616Z,-6.74
2017-01-07T22:31:23.592Z,-6.71
2017-01-07T22:32:23.572Z,-6.67
2017-01-07T22:33:23.551Z,-6.63
2017-01-07T22:34:23.925Z,-6.68
2017-01-07T22:35:23.517Z,-6.67
2017-01-07T22:36:23.495Z,-6.68
2017-01-07T22:37:23.463Z,-6.7
2017-01-07T22:38:23.445Z,-6.68
2017-01-07T22:39:23.424Z,-6.68
2017-01-07T22:40:23.409Z,-6.74
2017-01-07T22:41:23.379Z,-6.71
2017-01-07T22:42:23.362Z,-6.73
2017-01-07T22:43:23.339Z,-6.76
2017-01-07T22:44:23.318Z,-6.73
2017-01-07T22:45:23.298Z,-6.8
2017-01-07T22:46:23.279Z,-6.77
2017-01-07T22:47:23.271Z,-6.71
2017-01-07T22:48:23.231Z,-6.7
2017-01-07T22:49:23.212Z,-6.71
2017-01-07T22:50:23.190Z,-6.74
2017-01-07T22:51:23.178Z,-6.73
2017-01-07T22:52:23.150Z,-6.7
2017-01-07T22:53:23.132Z,-6.67
2017-01-07T22:54:23.104Z,-6.68
2017-01-07T22:55:23.478Z,-6.62
2017-01-07T22:56:23.067Z,-6.65
2017-01-07T22:57:23.050Z,-6.6
2017-01-07T22:58:23.021Z,-6.65
2017-01-07T22:59:22.998Z,-6.55
2017-01-07T23:00:22.979Z,-6.59
2017-01-07T23:01:22.957Z,-6.52
2017-01-07T23:02:23.333Z,-6.55
2017-01-07T23:03:22.913Z,-6.54
2017-01-07T23:04:22.889Z,-6.62
2017-01-07T23:05:22.873Z,-6.59
2017-01-07T23:06:22.856Z,-6.59
2017-01-07T23:07:22.828Z,-6.54
2017-01-07T23:08:22.809Z,-6.59
2017-01-07T23:09:22.786Z,-6.51
2017-01-07T23:10:22.762Z,-6.54
2017-01-07T23:11:22.742Z,-6.54
2017-01-07T23:12:22.726Z,-6.51
2017-01-07T23:13:22.707Z,-6.4
2017-01-07T23:14:22.689Z,-6.49
2017-01-07T23:15:22.657Z,-6.4
2017-01-07T23:16:22.662Z,-6.38
2017-01-07T23:17:22.616Z,-6.4
2017-01-07T23:18:22.594Z,-6.38
2017-01-07T23:19:22.578Z,-6.4
2017-01-07T23:20:22.556Z,-6.37
2017-01-07T23:21:22.535Z,-6.4
2017-01-07T23:22:22.511Z,-6.37
2017-01-07T23:23:22.492Z,-6.4
2017-01-07T23:24:22.477Z,-6.41
2017-01-07T23:25:22.449Z,-6.4
2017-01-07T23:26:22.429Z,-6.36
2017-01-07T23:27:22.409Z,-6.43
2017-01-07T23:28:22.381Z,-6.43
2017-01-07T23:29:22.365Z,-6.44
2017-01-07T23:30:22.347Z,-6.43
2017-01-07T23:31:22.326Z,-6.54
2017-01-07T23:32:22.303Z,-6.38
2017-01-07T23:33:22.278Z,-6.52
2017-01-07T23:34:22.263Z,-6.49
2017-01-07T23:35:22.236Z,-6.48
2017-01-07T23:36:22.218Z,-6.55
2017-01-07T23:37:22.197Z,-6.43
2017-01-07T23:38:22.172Z,-6.36
2017-01-07T23:39:22.158Z,-6.41
2017-01-07T23:40:22.137Z,-6.4
2017-01-07T23:41:22.119Z,-6.4
2017-01-07T23:42:22.093Z,-6.4
2017-01-07T23:43:22.069Z,-6.44
2017-01-07T23:44:22.049Z,-6.4
2017-01-07T23:45:22.029Z,-6.38
2017-01-07T23:46:22.009Z,-6.43
2017-01-07T23:47:21.986Z,-6.4
2017-01-07T23:48:21.967Z,-6.38
2017-01-07T23:49:21.947Z,-6.37
2017-01-07T23:50:21.949Z,-6.38
2017-01-07T23:51:21.905Z,-6.46
2017-01-07T23:52:21.876Z,-6.4
2017-01-07T23:53:21.863Z,-6.38
2017-01-07T23:54:21.839Z,-6.37
2017-01-07T23:55:21.845Z,-6.36
2017-01-07T23:56:21.798Z,-6.36
2017-01-07T23:57:21.779Z,-6.33
2017-01-07T23:58:21.752Z,-6.38
2017-01-07T23:59:21.735Z,-6.38
